sensor_id;sensor_type;location;lat;lon;timestamp;temperature;humidity
21184;DHT22;18176;49.502;11.754;2023-06-04T00:02:49;10.20;94.70
21184;DHT22;18176;49.502;11.754;2023-06-04T00:06:53;10.20;95.00
21184;DHT22;18176;49.502;11.754;2023-06-04T00:10:53;10.10;95.20
21184;DHT22;18176;49.502;11.754;2023-06-04T00:14:54;10.00;95.50
21184;DHT22;18176;49.502;11.754;2023-06-04T00:18:54;10.00;96.00
21184;DHT22;18176;49.502;11.754;2023-06-04T00:22:57;10.00;95.20
21184;DHT22;18176;49.502;11.754;2023-06-04T00:26:58;9.90;94.50
21184;DHT22;18176;49.502;11.754;2023-06-04T00:30:59;9.90;93.50
21184;DHT22;18176;49.502;11.754;2023-06-04T00:35:00;9.90;93.10
21184;DHT22;18176;49.502;11.754;2023-06-04T00:39:03;10.00;93.20
21184;DHT22;18176;49.502;11.754;2023-06-04T00:43:03;10.00;92.00
21184;DHT22;18176;49.502;11.754;2023-06-04T00:47:04;10.10;91.90
21184;DHT22;18176;49.502;11.754;2023-06-04T00:51:04;10.20;91.60
21184;DHT22;18176;49.502;11.754;2023-06-04T00:55:10;10.20;91.40
21184;DHT22;18176;49.502;11.754;2023-06-04T00:59:10;10.30;91.20
21184;DHT22;18176;49.502;11.754;2023-06-04T01:03:18;10.30;91.40
21184;DHT22;18176;49.502;11.754;2023-06-04T01:07:21;10.30;91.00
21184;DHT22;18176;49.502;11.754;2023-06-04T01:11:35;10.20;91.60
21184;DHT22;18176;49.502;11.754;2023-06-04T01:15:37;10.20;91.60
21184;DHT22;18176;49.502;11.754;2023-06-04T01:19:57;10.10;92.90
21184;DHT22;18176;49.502;11.754;2023-06-04T01:24:09;10.00;92.00
21184;DHT22;18176;49.502;11.754;2023-06-04T01:28:13;9.90;93.70
21184;DHT22;18176;49.502;11.754;2023-06-04T01:32:14;9.80;95.00
21184;DHT22;18176;49.502;11.754;2023-06-04T01:36:16;9.60;94.40
21184;DHT22;18176;49.502;11.754;2023-06-04T01:40:16;9.60;94.30
21184;DHT22;18176;49.502;11.754;2023-06-04T01:44:19;9.50;94.40
21184;DHT22;18176;49.502;11.754;2023-06-04T01:48:20;9.40;95.20
21184;DHT22;18176;49.502;11.754;2023-06-04T01:52:21;9.50;94.40
21184;DHT22;18176;49.502;11.754;2023-06-04T01:56:22;9.40;94.40
21184;DHT22;18176;49.502;11.754;2023-06-04T02:00:26;9.40;94.30
21184;DHT22;18176;49.502;11.754;2023-06-04T02:04:26;9.40;94.30
21184;DHT22;18176;49.502;11.754;2023-06-04T02:08:26;9.40;95.50
21184;DHT22;18176;49.502;11.754;2023-06-04T02:12:27;9.30;96.80
21184;DHT22;18176;49.502;11.754;2023-06-04T02:16:30;9.20;97.50
21184;DHT22;18176;49.502;11.754;2023-06-04T02:20:30;9.10;97.60
21184;DHT22;18176;49.502;11.754;2023-06-04T02:24:32;9.00;98.60
21184;DHT22;18176;49.502;11.754;2023-06-04T02:28:33;9.00;96.70
21184;DHT22;18176;49.502;11.754;2023-06-04T02:32:36;9.00;96.40
21184;DHT22;18176;49.502;11.754;2023-06-04T02:36:38;9.10;96.90
21184;DHT22;18176;49.502;11.754;2023-06-04T02:40:45;9.10;97.90
21184;DHT22;18176;49.502;11.754;2023-06-04T02:44:46;9.00;98.90
21184;DHT22;18176;49.502;11.754;2023-06-04T02:48:49;8.90;99.90
21184;DHT22;18176;49.502;11.754;2023-06-04T02:52:50;8.80;99.90
21184;DHT22;18176;49.502;11.754;2023-06-04T02:56:51;8.60;99.90
21184;DHT22;18176;49.502;11.754;2023-06-04T03:00:52;8.50;99.90
21184;DHT22;18176;49.502;11.754;2023-06-04T03:04:55;8.50;99.90
21184;DHT22;18176;49.502;11.754;2023-06-04T03:08:55;8.40;99.90
21184;DHT22;18176;49.502;11.754;2023-06-04T03:12:56;8.30;99.90
21184;DHT22;18176;49.502;11.754;2023-06-04T03:16:57;8.20;99.90
21184;DHT22;18176;49.502;11.754;2023-06-04T03:21:00;8.10;99.90
21184;DHT22;18176;49.502;11.754;2023-06-04T03:25:01;8.00;99.90
21184;DHT22;18176;49.502;11.754;2023-06-04T03:29:03;8.10;99.90
21184;DHT22;18176;49.502;11.754;2023-06-04T03:33:04;8.10;99.90
21184;DHT22;18176;49.502;11.754;2023-06-04T03:37:07;8.20;99.90
21184;DHT22;18176;49.502;11.754;2023-06-04T03:41:07;8.20;99.90
21184;DHT22;18176;49.502;11.754;2023-06-04T03:45:08;8.20;99.90
21184;DHT22;18176;49.502;11.754;2023-06-04T03:49:09;8.10;99.90
21184;DHT22;18176;49.502;11.754;2023-06-04T03:53:15;8.10;99.90
21184;DHT22;18176;49.502;11.754;2023-06-04T03:57:15;8.10;99.90
21184;DHT22;18176;49.502;11.754;2023-06-04T04:01:16;8.20;99.90
21184;DHT22;18176;49.502;11.754;2023-06-04T04:05:17;8.20;99.90
21184;DHT22;18176;49.502;11.754;2023-06-04T04:09:21;8.20;99.90
21184;DHT22;18176;49.502;11.754;2023-06-04T04:13:21;8.20;99.90
21184;DHT22;18176;49.502;11.754;2023-06-04T04:17:22;8.20;99.90
21184;DHT22;18176;49.502;11.754;2023-06-04T04:21:23;8.10;99.90
21184;DHT22;18176;49.502;11.754;2023-06-04T04:25:26;8.10;99.90
21184;DHT22;18176;49.502;11.754;2023-06-04T04:29:33;8.10;99.90
21184;DHT22;18176;49.502;11.754;2023-06-04T04:33:36;8.10;99.90
21184;DHT22;18176;49.502;11.754;2023-06-04T04:37:40;8.10;99.90
21184;DHT22;18176;49.502;11.754;2023-06-04T04:41:46;8.10;99.90
21184;DHT22;18176;49.502;11.754;2023-06-04T04:45:47;8.20;99.90
21184;DHT22;18176;49.502;11.754;2023-06-04T04:49:48;8.20;99.90
21184;DHT22;18176;49.502;11.754;2023-06-04T04:53:49;8.20;99.90
21184;DHT22;18176;49.502;11.754;2023-06-04T04:57:55;8.20;99.90
21184;DHT22;18176;49.502;11.754;2023-06-04T05:01:56;8.30;99.90
21184;DHT22;18176;49.502;11.754;2023-06-04T05:05:56;8.40;99.90
21184;DHT22;18176;49.502;11.754;2023-06-04T05:09:57;8.50;99.90
21184;DHT22;18176;49.502;11.754;2023-06-04T05:14:02;8.60;99.90
21184;DHT22;18176;49.502;11.754;2023-06-04T05:18:04;8.80;99.90
21184;DHT22;18176;49.502;11.754;2023-06-04T05:22:07;9.10;99.90
21184;DHT22;18176;49.502;11.754;2023-06-04T05:26:07;9.30;99.90
21184;DHT22;18176;49.502;11.754;2023-06-04T05:30:11;9.60;99.90
21184;DHT22;18176;49.502;11.754;2023-06-04T05:34:13;9.70;99.90
21184;DHT22;18176;49.502;11.754;2023-06-04T05:38:17;10.00;99.90
21184;DHT22;18176;49.502;11.754;2023-06-04T05:42:25;10.20;99.90
21184;DHT22;18176;49.502;11.754;2023-06-04T05:46:28;10.40;99.90
21184;DHT22;18176;49.502;11.754;2023-06-04T05:50:29;10.60;99.90
21184;DHT22;18176;49.502;11.754;2023-06-04T05:54:33;10.80;99.90
21184;DHT22;18176;49.502;11.754;2023-06-04T05:58:35;11.00;99.90
21184;DHT22;18176;49.502;11.754;2023-06-04T06:02:40;11.20;99.90
21184;DHT22;18176;49.502;11.754;2023-06-04T06:06:54;11.30;99.90
21184;DHT22;18176;49.502;11.754;2023-06-04T06:10:55;11.60;99.90
21184;DHT22;18176;49.502;11.754;2023-06-04T06:14:55;11.70;99.90
21184;DHT22;18176;49.502;11.754;2023-06-04T06:19:00;12.00;99.90
21184;DHT22;18176;49.502;11.754;2023-06-04T06:23:06;12.10;99.90
21184;DHT22;18176;49.502;11.754;2023-06-04T06:27:11;12.30;99.90
21184;DHT22;18176;49.502;11.754;2023-06-04T06:31:12;12.50;99.90
21184;DHT22;18176;49.502;11.754;2023-06-04T06:35:17;12.60;99.90
21184;DHT22;18176;49.502;11.754;2023-06-04T06:39:17;12.80;99.90
21184;DHT22;18176;49.502;11.754;2023-06-04T06:43:18;12.90;99.90
21184;DHT22;18176;49.502;11.754;2023-06-04T06:47:18;13.00;99.90
21184;DHT22;18176;49.502;11.754;2023-06-04T06:51:21;13.20;99.90
21184;DHT22;18176;49.502;11.754;2023-06-04T06:55:22;13.40;99.90
21184;DHT22;18176;49.502;11.754;2023-06-04T06:59:23;13.50;99.90
21184;DHT22;18176;49.502;11.754;2023-06-04T07:03:23;13.70;99.90
21184;DHT22;18176;49.502;11.754;2023-06-04T07:07:26;13.90;99.90
21184;DHT22;18176;49.502;11.754;2023-06-04T07:11:27;14.00;99.90
21184;DHT22;18176;49.502;11.754;2023-06-04T07:15:27;14.20;99.90
21184;DHT22;18176;49.502;11.754;2023-06-04T07:19:27;14.30;99.90
21184;DHT22;18176;49.502;11.754;2023-06-04T07:23:30;14.50;99.90
21184;DHT22;18176;49.502;11.754;2023-06-04T07:27:31;14.70;99.90
21184;DHT22;18176;49.502;11.754;2023-06-04T07:31:31;14.90;99.90
21184;DHT22;18176;49.502;11.754;2023-06-04T07:35:32;15.00;99.90
21184;DHT22;18176;49.502;11.754;2023-06-04T07:39:35;15.20;99.90
21184;DHT22;18176;49.502;11.754;2023-06-04T07:43:36;15.40;99.90
21184;DHT22;18176;49.502;11.754;2023-06-04T07:47:37;15.70;99.90
21184;DHT22;18176;49.502;11.754;2023-06-04T07:51:38;15.90;99.90
21184;DHT22;18176;49.502;11.754;2023-06-04T07:55:41;15.90;99.90
21184;DHT22;18176;49.502;11.754;2023-06-04T07:59:42;16.30;99.90
21184;DHT22;18176;49.502;11.754;2023-06-04T08:03:42;16.80;99.90
21184;DHT22;18176;49.502;11.754;2023-06-04T08:07:43;17.70;99.90
21184;DHT22;18176;49.502;11.754;2023-06-04T08:11:46;19.40;95.00
21184;DHT22;18176;49.502;11.754;2023-06-04T08:15:46;21.20;91.60
21184;DHT22;18176;49.502;11.754;2023-06-04T08:19:46;22.30;86.00
21184;DHT22;18176;49.502;11.754;2023-06-04T08:23:47;23.20;80.30
21184;DHT22;18176;49.502;11.754;2023-06-04T08:27:50;24.10;75.60
21184;DHT22;18176;49.502;11.754;2023-06-04T08:31:51;24.10;71.70
21184;DHT22;18176;49.502;11.754;2023-06-04T08:35:52;23.30;69.40
21184;DHT22;18176;49.502;11.754;2023-06-04T08:39:52;24.50;70.10
21184;DHT22;18176;49.502;11.754;2023-06-04T08:43:57;24.30;66.00
21184;DHT22;18176;49.502;11.754;2023-06-04T08:47:59;24.60;66.50
21184;DHT22;18176;49.502;11.754;2023-06-04T08:52:01;25.70;66.60
21184;DHT22;18176;49.502;11.754;2023-06-04T08:56:03;25.50;60.40
21184;DHT22;18176;49.502;11.754;2023-06-04T09:00:07;25.30;60.30
21184;DHT22;18176;49.502;11.754;2023-06-04T09:04:09;24.50;61.70
21184;DHT22;18176;49.502;11.754;2023-06-04T09:08:11;24.10;61.50
21184;DHT22;18176;49.502;11.754;2023-06-04T09:12:20;24.50;61.20
21184;DHT22;18176;49.502;11.754;2023-06-04T09:16:25;24.90;60.30
21184;DHT22;18176;49.502;11.754;2023-06-04T09:20:33;25.50;58.10
21184;DHT22;18176;49.502;11.754;2023-06-04T09:24:40;24.40;58.90
21184;DHT22;18176;49.502;11.754;2023-06-04T09:28:46;24.40;58.80
21184;DHT22;18176;49.502;11.754;2023-06-04T09:32:49;24.00;58.50
21184;DHT22;18176;49.502;11.754;2023-06-04T09:36:51;24.20;59.20
21184;DHT22;18176;49.502;11.754;2023-06-04T09:40:51;24.70;59.30
21184;DHT22;18176;49.502;11.754;2023-06-04T09:44:52;25.50;58.40
21184;DHT22;18176;49.502;11.754;2023-06-04T09:48:59;26.20;59.00
21184;DHT22;18176;49.502;11.754;2023-06-04T09:53:01;26.40;56.60
21184;DHT22;18176;49.502;11.754;2023-06-04T09:57:02;26.40;55.70
21184;DHT22;18176;49.502;11.754;2023-06-04T10:01:05;26.30;55.70
21184;DHT22;18176;49.502;11.754;2023-06-04T10:05:10;26.20;55.30
21184;DHT22;18176;49.502;11.754;2023-06-04T10:09:13;25.60;55.60
21184;DHT22;18176;49.502;11.754;2023-06-04T10:13:17;25.10;57.10
21184;DHT22;18176;49.502;11.754;2023-06-04T10:17:20;26.10;56.20
21184;DHT22;18176;49.502;11.754;2023-06-04T10:21:26;26.30;58.90
21184;DHT22;18176;49.502;11.754;2023-06-04T10:25:29;25.90;54.60
21184;DHT22;18176;49.502;11.754;2023-06-04T10:29:32;26.50;53.30
21184;DHT22;18176;49.502;11.754;2023-06-04T10:33:33;27.10;54.60
21184;DHT22;18176;49.502;11.754;2023-06-04T10:37:36;27.50;51.80
21184;DHT22;18176;49.502;11.754;2023-06-04T10:41:37;27.10;53.20
21184;DHT22;18176;49.502;11.754;2023-06-04T10:45:37;27.80;52.80
21184;DHT22;18176;49.502;11.754;2023-06-04T10:49:39;28.00;50.20
21184;DHT22;18176;49.502;11.754;2023-06-04T10:53:41;27.20;54.00
21184;DHT22;18176;49.502;11.754;2023-06-04T10:57:51;28.30;48.60
21184;DHT22;18176;49.502;11.754;2023-06-04T11:02:04;28.50;50.80
21184;DHT22;18176;49.502;11.754;2023-06-04T11:06:15;29.50;48.30
21184;DHT22;18176;49.502;11.754;2023-06-04T11:10:31;29.70;47.80
21184;DHT22;18176;49.502;11.754;2023-06-04T11:14:33;29.80;49.80
21184;DHT22;18176;49.502;11.754;2023-06-04T11:18:33;29.60;46.00
21184;DHT22;18176;49.502;11.754;2023-06-04T11:22:34;30.50;45.20
21184;DHT22;18176;49.502;11.754;2023-06-04T11:26:37;30.50;45.40
21184;DHT22;18176;49.502;11.754;2023-06-04T11:30:56;28.90;47.00
21184;DHT22;18176;49.502;11.754;2023-06-04T11:35:03;28.70;46.30
21184;DHT22;18176;49.502;11.754;2023-06-04T11:39:05;28.50;46.60
21184;DHT22;18176;49.502;11.754;2023-06-04T11:43:10;29.20;49.00
21184;DHT22;18176;49.502;11.754;2023-06-04T11:47:11;30.30;45.00
21184;DHT22;18176;49.502;11.754;2023-06-04T11:51:12;29.30;45.40
21184;DHT22;18176;49.502;11.754;2023-06-04T11:55:13;28.90;45.60
21184;DHT22;18176;49.502;11.754;2023-06-04T11:59:18;29.30;45.30
21184;DHT22;18176;49.502;11.754;2023-06-04T12:03:19;29.00;45.80
21184;DHT22;18176;49.502;11.754;2023-06-04T12:07:20;27.70;45.10
21184;DHT22;18176;49.502;11.754;2023-06-04T12:11:26;28.30;45.20
21184;DHT22;18176;49.502;11.754;2023-06-04T12:15:31;28.90;44.70
21184;DHT22;18176;49.502;11.754;2023-06-04T12:19:32;28.90;45.20
21184;DHT22;18176;49.502;11.754;2023-06-04T12:23:32;28.90;44.80
21184;DHT22;18176;49.502;11.754;2023-06-04T12:27:33;29.30;46.40
21184;DHT22;18176;49.502;11.754;2023-06-04T12:31:37;30.10;46.10
21184;DHT22;18176;49.502;11.754;2023-06-04T12:35:40;30.30;43.40
21184;DHT22;18176;49.502;11.754;2023-06-04T12:39:42;30.20;43.90
21184;DHT22;18176;49.502;11.754;2023-06-04T12:43:43;30.30;41.30
21184;DHT22;18176;49.502;11.754;2023-06-04T12:47:46;29.20;46.10
21184;DHT22;18176;49.502;11.754;2023-06-04T12:51:47;29.40;44.10
21184;DHT22;18176;49.502;11.754;2023-06-04T12:55:48;28.70;43.80
21184;DHT22;18176;49.502;11.754;2023-06-04T12:59:48;27.80;44.60
21184;DHT22;18176;49.502;11.754;2023-06-04T13:03:51;27.40;45.00
21184;DHT22;18176;49.502;11.754;2023-06-04T13:07:52;27.20;44.10
21184;DHT22;18176;49.502;11.754;2023-06-04T13:11:54;27.90;44.20
21184;DHT22;18176;49.502;11.754;2023-06-04T13:15:54;27.60;42.80
21184;DHT22;18176;49.502;11.754;2023-06-04T13:19:57;28.60;43.10
21184;DHT22;18176;49.502;11.754;2023-06-04T13:24:00;28.60;42.20
21184;DHT22;18176;49.502;11.754;2023-06-04T13:28:04;27.70;43.20
21184;DHT22;18176;49.502;11.754;2023-06-04T13:32:05;28.20;45.00
21184;DHT22;18176;49.502;11.754;2023-06-04T13:36:10;28.60;44.70
21184;DHT22;18176;49.502;11.754;2023-06-04T13:40:12;29.70;43.10
21184;DHT22;18176;49.502;11.754;2023-06-04T13:44:13;30.40;43.60
21184;DHT22;18176;49.502;11.754;2023-06-04T13:48:15;30.50;42.10
21184;DHT22;18176;49.502;11.754;2023-06-04T13:52:18;30.90;41.10
21184;DHT22;18176;49.502;11.754;2023-06-04T13:56:18;30.70;40.70
21184;DHT22;18176;49.502;11.754;2023-06-04T14:00:18;30.70;40.80
21184;DHT22;18176;49.502;11.754;2023-06-04T14:04:20;30.70;41.00
21184;DHT22;18176;49.502;11.754;2023-06-04T14:08:23;31.20;40.70
21184;DHT22;18176;49.502;11.754;2023-06-04T14:12:24;32.00;39.40
21184;DHT22;18176;49.502;11.754;2023-06-04T14:16:25;31.60;37.80
21184;DHT22;18176;49.502;11.754;2023-06-04T14:20:25;31.30;38.40
21184;DHT22;18176;49.502;11.754;2023-06-04T14:24:28;29.10;40.80
21184;DHT22;18176;49.502;11.754;2023-06-04T14:28:29;27.00;42.80
21184;DHT22;18176;49.502;11.754;2023-06-04T14:32:29;26.10;43.60
21184;DHT22;18176;49.502;11.754;2023-06-04T14:36:31;26.60;44.30
21184;DHT22;18176;49.502;11.754;2023-06-04T14:40:34;27.10;43.10
21184;DHT22;18176;49.502;11.754;2023-06-04T14:44:35;27.40;44.20
21184;DHT22;18176;49.502;11.754;2023-06-04T14:48:35;28.20;43.40
21184;DHT22;18176;49.502;11.754;2023-06-04T14:52:35;29.30;43.20
21184;DHT22;18176;49.502;11.754;2023-06-04T14:56:38;31.00;40.20
21184;DHT22;18176;49.502;11.754;2023-06-04T15:00:39;30.90;40.20
21184;DHT22;18176;49.502;11.754;2023-06-04T15:04:39;31.60;39.20
21184;DHT22;18176;49.502;11.754;2023-06-04T15:08:41;29.50;38.70
21184;DHT22;18176;49.502;11.754;2023-06-04T15:12:44;28.30;40.40
21184;DHT22;18176;49.502;11.754;2023-06-04T15:16:44;27.40;41.00
21184;DHT22;18176;49.502;11.754;2023-06-04T15:20:45;26.90;42.80
21184;DHT22;18176;49.502;11.754;2023-06-04T15:24:45;26.30;41.90
21184;DHT22;18176;49.502;11.754;2023-06-04T15:28:48;26.10;43.00
21184;DHT22;18176;49.502;11.754;2023-06-04T15:32:48;26.10;43.20
21184;DHT22;18176;49.502;11.754;2023-06-04T15:36:49;28.20;42.20
21184;DHT22;18176;49.502;11.754;2023-06-04T15:40:49;29.20;38.40
21184;DHT22;18176;49.502;11.754;2023-06-04T15:44:52;29.70;38.50
21184;DHT22;18176;49.502;11.754;2023-06-04T15:48:53;28.70;39.30
21184;DHT22;18176;49.502;11.754;2023-06-04T15:52:53;29.70;39.70
21184;DHT22;18176;49.502;11.754;2023-06-04T15:56:53;31.30;37.70
21184;DHT22;18176;49.502;11.754;2023-06-04T16:00:56;31.50;36.30
21184;DHT22;18176;49.502;11.754;2023-06-04T16:04:58;30.90;36.70
21184;DHT22;18176;49.502;11.754;2023-06-04T16:08:58;30.00;36.20
21184;DHT22;18176;49.502;11.754;2023-06-04T16:12:59;30.10;38.40
21184;DHT22;18176;49.502;11.754;2023-06-04T16:17:03;30.80;35.90
21184;DHT22;18176;49.502;11.754;2023-06-04T16:21:04;30.80;35.70
21184;DHT22;18176;49.502;11.754;2023-06-04T16:25:06;29.80;36.50
21184;DHT22;18176;49.502;11.754;2023-06-04T16:29:07;31.00;36.50
21184;DHT22;18176;49.502;11.754;2023-06-04T16:33:10;29.00;36.10
21184;DHT22;18176;49.502;11.754;2023-06-04T16:37:11;28.20;38.50
21184;DHT22;18176;49.502;11.754;2023-06-04T16:41:11;28.40;38.50
21184;DHT22;18176;49.502;11.754;2023-06-04T16:45:12;27.90;37.50
21184;DHT22;18176;49.502;11.754;2023-06-04T16:49:15;26.80;37.90
21184;DHT22;18176;49.502;11.754;2023-06-04T16:53:16;26.50;39.50
21184;DHT22;18176;49.502;11.754;2023-06-04T16:57:16;26.70;40.00
21184;DHT22;18176;49.502;11.754;2023-06-04T17:01:18;26.90;38.90
21184;DHT22;18176;49.502;11.754;2023-06-04T17:05:21;26.10;40.10
21184;DHT22;18176;49.502;11.754;2023-06-04T17:09:22;25.90;41.20
21184;DHT22;18176;49.502;11.754;2023-06-04T17:13:23;25.60;41.40
21184;DHT22;18176;49.502;11.754;2023-06-04T17:17:23;25.80;41.20
21184;DHT22;18176;49.502;11.754;2023-06-04T17:21:26;26.30;40.60
21184;DHT22;18176;49.502;11.754;2023-06-04T17:25:26;25.70;39.80
21184;DHT22;18176;49.502;11.754;2023-06-04T17:29:29;26.00;40.80
21184;DHT22;18176;49.502;11.754;2023-06-04T17:33:31;26.20;40.20
21184;DHT22;18176;49.502;11.754;2023-06-04T17:37:34;26.30;40.80
21184;DHT22;18176;49.502;11.754;2023-06-04T17:41:35;26.20;41.00
21184;DHT22;18176;49.502;11.754;2023-06-04T17:45:36;25.80;41.50
21184;DHT22;18176;49.502;11.754;2023-06-04T17:49:36;25.60;41.10
21184;DHT22;18176;49.502;11.754;2023-06-04T17:53:39;24.60;42.70
21184;DHT22;18176;49.502;11.754;2023-06-04T17:57:39;24.00;44.10
21184;DHT22;18176;49.502;11.754;2023-06-04T18:01:40;23.90;44.50
21184;DHT22;18176;49.502;11.754;2023-06-04T18:05:40;23.70;44.30
21184;DHT22;18176;49.502;11.754;2023-06-04T18:09:43;23.70;44.50
21184;DHT22;18176;49.502;11.754;2023-06-04T18:13:43;23.60;44.60
21184;DHT22;18176;49.502;11.754;2023-06-04T18:17:44;23.30;44.80
21184;DHT22;18176;49.502;11.754;2023-06-04T18:21:44;22.90;45.50
21184;DHT22;18176;49.502;11.754;2023-06-04T18:25:47;22.70;48.20
21184;DHT22;18176;49.502;11.754;2023-06-04T18:29:48;22.50;47.50
21184;DHT22;18176;49.502;11.754;2023-06-04T18:33:50;22.40;49.00
21184;DHT22;18176;49.502;11.754;2023-06-04T18:37:51;22.10;52.70
21184;DHT22;18176;49.502;11.754;2023-06-04T18:41:54;21.80;53.10
21184;DHT22;18176;49.502;11.754;2023-06-04T18:45:54;21.50;54.20
21184;DHT22;18176;49.502;11.754;2023-06-04T18:49:55;21.20;55.00
21184;DHT22;18176;49.502;11.754;2023-06-04T18:53:55;20.70;56.40
21184;DHT22;18176;49.502;11.754;2023-06-04T18:57:58;20.40;56.40
21184;DHT22;18176;49.502;11.754;2023-06-04T19:01:59;20.00;57.30
21184;DHT22;18176;49.502;11.754;2023-06-04T19:05:59;19.80;58.20
21184;DHT22;18176;49.502;11.754;2023-06-04T19:09:59;19.50;58.50
21184;DHT22;18176;49.502;11.754;2023-06-04T19:14:02;19.20;58.40
21184;DHT22;18176;49.502;11.754;2023-06-04T19:18:03;19.00;60.10
21184;DHT22;18176;49.502;11.754;2023-06-04T19:22:04;18.70;60.50
21184;DHT22;18176;49.502;11.754;2023-06-04T19:26:06;18.30;61.00
21184;DHT22;18176;49.502;11.754;2023-06-04T19:30:10;18.10;62.40
21184;DHT22;18176;49.502;11.754;2023-06-04T19:34:11;17.90;63.40
21184;DHT22;18176;49.502;11.754;2023-06-04T19:38:11;17.70;63.60
21184;DHT22;18176;49.502;11.754;2023-06-04T19:42:12;17.50;64.60
21184;DHT22;18176;49.502;11.754;2023-06-04T19:46:15;17.30;64.80
21184;DHT22;18176;49.502;11.754;2023-06-04T19:50:15;17.10;65.40
21184;DHT22;18176;49.502;11.754;2023-06-04T19:54:16;17.00;65.20
21184;DHT22;18176;49.502;11.754;2023-06-04T19:58:17;16.90;65.80
21184;DHT22;18176;49.502;11.754;2023-06-04T20:02:20;16.80;66.50
21184;DHT22;18176;49.502;11.754;2023-06-04T20:06:20;16.70;67.10
21184;DHT22;18176;49.502;11.754;2023-06-04T20:10:21;16.70;67.40
21184;DHT22;18176;49.502;11.754;2023-06-04T20:14:22;16.60;68.00
21184;DHT22;18176;49.502;11.754;2023-06-04T20:18:25;16.40;68.60
21184;DHT22;18176;49.502;11.754;2023-06-04T20:22:28;16.40;69.40
21184;DHT22;18176;49.502;11.754;2023-06-04T20:26:30;16.30;69.10
21184;DHT22;18176;49.502;11.754;2023-06-04T20:30:30;16.30;68.70
21184;DHT22;18176;49.502;11.754;2023-06-04T20:34:33;16.20;68.00
21184;DHT22;18176;49.502;11.754;2023-06-04T20:38:34;16.10;70.90
21184;DHT22;18176;49.502;11.754;2023-06-04T20:42:34;16.00;72.20
21184;DHT22;18176;49.502;11.754;2023-06-04T20:46:35;15.90;71.30
21184;DHT22;18176;49.502;11.754;2023-06-04T20:50:38;15.90;72.00
21184;DHT22;18176;49.502;11.754;2023-06-04T20:54:38;15.80;72.40
21184;DHT22;18176;49.502;11.754;2023-06-04T20:58:39;15.70;72.50
21184;DHT22;18176;49.502;11.754;2023-06-04T21:02:39;15.70;71.00
21184;DHT22;18176;49.502;11.754;2023-06-04T21:06:43;15.80;71.30
21184;DHT22;18176;49.502;11.754;2023-06-04T21:10:43;15.80;72.50
21184;DHT22;18176;49.502;11.754;2023-06-04T21:14:43;15.80;71.10
21184;DHT22;18176;49.502;11.754;2023-06-04T21:18:44;15.80;69.40
21184;DHT22;18176;49.502;11.754;2023-06-04T21:22:47;15.90;70.50
21184;DHT22;18176;49.502;11.754;2023-06-04T21:26:47;15.90;73.40
21184;DHT22;18176;49.502;11.754;2023-06-04T21:30:48;15.80;74.10
21184;DHT22;18176;49.502;11.754;2023-06-04T21:34:48;15.70;74.50
21184;DHT22;18176;49.502;11.754;2023-06-04T21:38:51;15.50;74.10
21184;DHT22;18176;49.502;11.754;2023-06-04T21:42:52;15.40;76.20
21184;DHT22;18176;49.502;11.754;2023-06-04T21:46:52;15.20;77.60
21184;DHT22;18176;49.502;11.754;2023-06-04T21:50:53;15.10;76.70
21184;DHT22;18176;49.502;11.754;2023-06-04T21:54:56;15.10;76.00
21184;DHT22;18176;49.502;11.754;2023-06-04T21:58:57;15.10;78.20
21184;DHT22;18176;49.502;11.754;2023-06-04T22:02:58;14.90;78.50
21184;DHT22;18176;49.502;11.754;2023-06-04T22:06:59;14.80;78.20
21184;DHT22;18176;49.502;11.754;2023-06-04T22:11:03;14.70;80.00
21184;DHT22;18176;49.502;11.754;2023-06-04T22:15:04;14.60;78.10
21184;DHT22;18176;49.502;11.754;2023-06-04T22:19:05;14.60;77.90
21184;DHT22;18176;49.502;11.754;2023-06-04T22:23:05;14.70;77.60
21184;DHT22;18176;49.502;11.754;2023-06-04T22:27:09;14.70;78.40
21184;DHT22;18176;49.502;11.754;2023-06-04T22:31:09;14.70;77.30
21184;DHT22;18176;49.502;11.754;2023-06-04T22:35:09;14.80;77.50
21184;DHT22;18176;49.502;11.754;2023-06-04T22:39:10;14.70;80.80
21184;DHT22;18176;49.502;11.754;2023-06-04T22:43:16;14.60;81.70
21184;DHT22;18176;49.502;11.754;2023-06-04T22:47:16;14.50;82.90
21184;DHT22;18176;49.502;11.754;2023-06-04T22:51:17;14.30;83.70
21184;DHT22;18176;49.502;11.754;2023-06-04T22:55:19;14.10;84.70
21184;DHT22;18176;49.502;11.754;2023-06-04T22:59:23;13.90;86.00
21184;DHT22;18176;49.502;11.754;2023-06-04T23:03:23;13.80;86.60
21184;DHT22;18176;49.502;11.754;2023-06-04T23:07:25;13.60;88.70
21184;DHT22;18176;49.502;11.754;2023-06-04T23:11:26;13.50;89.00
21184;DHT22;18176;49.502;11.754;2023-06-04T23:15:29;13.50;90.00
21184;DHT22;18176;49.502;11.754;2023-06-04T23:19:31;13.40;87.90
21184;DHT22;18176;49.502;11.754;2023-06-04T23:23:31;13.40;88.60
21184;DHT22;18176;49.502;11.754;2023-06-04T23:27:31;13.40;89.80
21184;DHT22;18176;49.502;11.754;2023-06-04T23:31:35;13.30;88.40
21184;DHT22;18176;49.502;11.754;2023-06-04T23:35:35;13.20;87.50
21184;DHT22;18176;49.502;11.754;2023-06-04T23:39:35;13.30;88.50
21184;DHT22;18176;49.502;11.754;2023-06-04T23:43:36;13.30;86.90
21184;DHT22;18176;49.502;11.754;2023-06-04T23:47:39;13.30;86.20
21184;DHT22;18176;49.502;11.754;2023-06-04T23:51:39;13.40;84.70
21184;DHT22;18176;49.502;11.754;2023-06-04T23:55:40;13.40;84.40
21184;DHT22;18176;49.502;11.754;2023-06-04T23:59:40;13.40;84.30
